• Join FlightAware (Why Join?)
  • Login
  • US Flag 
11:33PM EDT


 

Airport Tracker/Info


-or-


 

Live Flight TrackerFlight Track Log ✈ SWA4657 ✈ 27-Sep-2013 ✈ KPHX - KPHL

Flight Track Log - Related Links

Times and Time Zones

All times are in EDT time to prevent confusion due to time zone crossing. See the SWA4657 flight status page for this flight to view local times or setup timezone preferences in your user account.

Time Position Orientation Groundspeed Altitude Reporting Facility
EDT Latitude Longitude Course Direction KTS MPH feet Rate Location/Type
12:17PM 33.4333 -112.0333 270° West 147 169 1,700  Level Phoenix TRACON
12:17PM 33.4333 -112.0667 270° West 173 199 2,600 1,500 Climbing Phoenix TRACON
12:18PM 33.4333 -112.1500 270° West 258 297 4,000 1,980 Climbing Phoenix TRACON
12:19PM 33.4833 -112.2167 312° West 276 318 6,800 2,760 Climbing Phoenix TRACON
12:20PM 33.5167 -112.1500 59° Northeast 307 353 9,800 2,640 Climbing Phoenix TRACON
12:21PM 33.5500 -112.0333 71° East 346 398 12,100 2,220 Climbing Phoenix TRACON
12:22PM 33.5667 -111.9167 80° East 381 438 14,300 2,100 Climbing Phoenix TRACON
12:24PM 33.5997 -111.7442 77° East 412 474 17,400 2,280 Climbing Albuquerque Center
12:25PM 33.6308 -111.5767 77° East 433 498 20,100 2,340 Climbing Albuquerque Center
12:26PM 33.6578 -111.4344 77° East 441 507 22,300 2,040 Climbing Albuquerque Center
12:27PM 33.6856 -111.2875 77° East 454 522 24,400 1,980 Climbing Albuquerque Center
12:28PM 33.7322 -111.1450 68° East 460 529 26,500 1,920 Climbing Albuquerque Center
12:29PM 33.7928 -110.9753 67° East 463 533 28,400 1,380 Climbing Albuquerque Center
12:30PM 33.8467 -110.8269 66° East 476 548 29,400 960 Climbing Albuquerque Center
12:31PM 33.9033 -110.6719 66° East 497 572 30,400 840 Climbing Albuquerque Center
12:32PM 33.9653 -110.5097 65° Northeast 522 601 31,200 900 Climbing Albuquerque Center
12:33PM 34.0289 -110.3333 66° East 540 621 32,300 1,080 Climbing Albuquerque Center
12:34PM 34.0919 -110.1631 66° East 552 635 33,500 1,440 Climbing Albuquerque Center
12:35PM 34.1561 -109.9864 66° East 549 632 35,300 1,440 Climbing Albuquerque Center
12:36PM 34.2222 -109.8039 66° East 537 618 36,500 780 Climbing Albuquerque Center
12:37PM 34.2789 -109.6458 67° East 536 617 37,000 240 Climbing Albuquerque Center
12:38PM 34.3447 -109.4606 67° East 536 617 37,000  Level Albuquerque Center
12:39PM 34.4006 -109.3036 67° East 534 615 37,000  Level Albuquerque Center
12:40PM 34.4658 -109.1225 66° East 530 610 37,000  Level Albuquerque Center
12:42PM 34.5208 -108.9664 67° East 528 608 37,000  Level Albuquerque Center
12:43PM 34.5844 -108.7839 67° East 528 608 37,000  Level Albuquerque Center
12:44PM 34.6394 -108.6261 67° East 529 609 37,000  Level Albuquerque Center
12:45PM 34.7025 -108.4411 67° East 531 611 37,000  Level Albuquerque Center
12:46PM 34.7567 -108.2847 67° East 528 608 37,000  Level Albuquerque Center
12:47PM 34.8161 -108.1108 67° East 529 609 37,000  Level Albuquerque Center
12:48PM 34.8728 -107.9453 67° East 529 609 37,000  Level Albuquerque Center
12:49PM 34.9556 -107.7950 56° Northeast 536 617 37,000  Level Albuquerque Center
12:50PM 35.0411 -107.6472 55° Northeast 534 615 37,000  Level Albuquerque Center
12:51PM 35.1453 -107.4697 54° Northeast 535 616 37,000  Level Albuquerque Center
12:52PM 35.2281 -107.3294 54° Northeast 534 615 37,000  Level Albuquerque Center
12:53PM 35.3033 -107.1519 63° Northeast 535 616 37,000  Level Albuquerque Center
12:54PM 35.3544 -106.9844 69° East 527 606 37,000  Level Albuquerque Center
12:55PM 35.4075 -106.8150 69° East 529 609 37,000  Level Albuquerque Center
12:56PM 35.4656 -106.6342 68° East 528 608 37,000  Level Albuquerque Center
12:57PM 35.5178 -106.4656 69° East 527 606 37,000  Level Albuquerque Center
12:58PM 35.5736 -106.2850 69° East 526 605 37,000  Level Albuquerque Center
12:59PM 35.6189 -106.1458 68° East 522 601 37,000  Level Albuquerque Center
01:00PM 35.6858 -105.9478 67° East 523 602 37,000  Level Albuquerque Center
01:01PM 35.7356 -105.7783 70° East 525 604 37,000  Level Albuquerque Center
01:02PM 35.7861 -105.6083 70° East 527 606 37,000  Level Albuquerque Center
01:03PM 35.8347 -105.4453 70° East 525 604 37,000  Level Albuquerque Center
01:04PM 35.8958 -105.2456 69° East 527 606 37,000  Level Albuquerque Center
01:05PM 35.9456 -105.0769 70° East 523 602 37,000  Level Albuquerque Center
01:06PM 35.9975 -104.9047 70° East 525 604 37,000  Level Albuquerque Center
01:07PM 36.0478 -104.7367 70° East 520 598 37,000  Level Albuquerque Center
01:08PM 36.0975 -104.5653 70° East 521 600 37,000  Level Albuquerque Center
01:09PM 36.1483 -104.3939 70° East 523 602 37,000  Level Albuquerque Center
01:10PM 36.1972 -104.2236 70° East 521 600 37,000  Level Albuquerque Center
01:12PM 36.2486 -104.0556 69° East 518 596 37,000  Level Albuquerque Center
01:13PM 36.3061 -103.8564 70° East 519 597 37,000  Level Albuquerque Center
01:14PM 36.3547 -103.6833 71° East 523 602 37,000  Level Albuquerque Center
01:15PM 36.4031 -103.5103 71° East 523 602 37,000  Level Albuquerque Center
01:16PM 36.4525 -103.3403 70° East 521 600 37,000  Level Albuquerque Center
01:17PM 36.4994 -103.1692 71° East 520 598 37,000  Level Albuquerque Center
01:18PM 36.5472 -102.9983 71° East 517 595 37,000  Level Albuquerque Center
01:19PM 36.5925 -102.8308 71° East 516 594 37,000  Level Albuquerque Center
01:20PM 36.6467 -102.6375 71° East 517 595 37,000  Level Albuquerque Center
01:21PM 36.6956 -102.4567 71° East 520 598 37,000  Level Albuquerque Center
01:22PM 36.7417 -102.2883 71° East 517 595 37,000  Level Albuquerque Center
01:23PM 36.7883 -102.1136 72° East 513 590 37,000  Level Albuquerque Center
01:24PM 36.8314 -101.9514 72° East 514 592 37,000  Level Albuquerque Center
01:25PM 36.8819 -101.7639 71° East 513 590 37,000  Level Albuquerque Center
01:26PM 36.9247 -101.6014 72° East 514 592 37,000  Level Albuquerque Center
01:27PM 36.9819 -101.3850 72° East 515 593 37,000  Level Kansas City Center
01:28PM 37.0314 -101.1942 72° East 517 595 37,000  Level Kansas City Center
01:29PM 37.0744 -101.0300 72° East 519 597 37,000  Level Kansas City Center
01:30PM 37.1239 -100.8381 72° East 521 600 37,000  Level Kansas City Center
01:31PM 37.1661 -100.6736 72° East 522 601 37,000  Level Kansas City Center
01:32PM 37.2144 -100.4811 72° East 522 601 37,000  Level Kansas City Center
01:33PM 37.2558 -100.3175 72° East 520 598 37,000  Level Kansas City Center
01:34PM 37.3042 -100.1261 72° East 518 596 37,000  Level Kansas City Center
01:36PM 37.3450 -99.9625 73° East 517 595 37,000  Level Kansas City Center
01:37PM 37.3914 -99.7722 73° East 514 592 37,000  Level Kansas City Center
01:38PM 37.4311 -99.6100 73° East 511 588 37,000  Level Kansas City Center
01:39PM 37.4728 -99.4386 73° East 509 586 37,000  Level Kansas City Center
01:40PM 37.5156 -99.2686 72° East 510 587 37,000  Level Kansas City Center
01:41PM 37.5533 -99.0994 74° East 505 581 37,000  Level Kansas City Center
01:42PM 37.5944 -98.9300 73° East 503 579 37,000  Level Kansas City Center
01:43PM 37.6428 -98.7247 73° East 508 585 37,000  Level Kansas City Center
01:44PM 37.6819 -98.5531 74° East 511 588 37,000  Level Kansas City Center
01:45PM 37.7228 -98.3836 73° East 508 585 37,000  Level Kansas City Center
01:46PM 37.7617 -98.2133 74° East 508 585 37,000  Level Kansas City Center
01:47PM 37.8042 -98.0239 74° East 504 580 37,000  Level Kansas City Center
01:48PM 37.8428 -97.8503 74° East 507 583 37,000  Level Kansas City Center
01:49PM 37.8808 -97.6761 74° East 510 587 37,000  Level Kansas City Center
01:50PM 37.9264 -97.4889 73° East 505 581 37,000  Level Kansas City Center
01:51PM 37.9581 -97.3372 75° East 507 583 37,000  Level Kansas City Center
01:52PM 38.0036 -97.1339 74° East 501 577 37,000  Level Kansas City Center
01:53PM 38.0408 -96.9642 74° East 501 577 37,000  Level Kansas City Center
01:54PM 38.0778 -96.7944 74° East 500 575 37,000  Level Kansas City Center
01:55PM 38.1133 -96.6250 75° East 499 574 37,000  Level Kansas City Center
01:56PM 38.1503 -96.4556 74° East 499 574 37,000  Level Kansas City Center
01:57PM 38.1858 -96.2864 75° East 497 572 37,000  Level Kansas City Center
01:58PM 38.2267 -96.0961 75° East 496 571 37,000 420 Level Kansas City Center
01:59PM 38.2661 -95.9058 75° East 499 574 37,900 840 Climbing Kansas City Center
02:00PM 38.2992 -95.7458 75° East 492 566 38,800 480 Climbing Kansas City Center
02:01PM 38.3383 -95.5567 79° East 495 570 39,000 60 Climbing Kansas City Center
02:02PM 38.3284 -95.5570 79° East  Level FlightAware Approximate
02:02PM 38.3708 -95.3950 76° East 494 568 39,000  Level Kansas City Center
02:03PM 38.4094 -95.2072 75° East 494 568 39,000  Level Kansas City Center
02:04PM 38.4414 -95.0475 76° East 490 564 39,000  Level Kansas City Center
02:06PM 38.4736 -94.8881 75° East 489 563 39,000  Level Kansas City Center
02:07PM 38.5097 -94.7014 76° East 487 560 39,000  Level Kansas City Center
02:08PM 38.5406 -94.5406 76° East 489 563 39,000  Level Kansas City Center
02:09PM 38.5764 -94.3550 76° East 485 558 39,000  Level Kansas City Center
02:10PM 38.6058 -94.1972 77° East 481 554 39,000  Level Kansas City Center
02:11PM 38.6414 -94.0108 76° East 484 557 39,000  Level Kansas City Center
02:12PM 38.6711 -93.8522 76° East 482 555 39,000  Level Kansas City Center
02:13PM 38.7039 -93.6772 76° East 483 556 39,000  Level Kansas City Center
02:14PM 38.7333 -93.5103 77° East 481 554 39,000  Level Kansas City Center
02:15PM 38.7678 -93.3386 76° East 487 560 39,000  Level Kansas City Center
02:16PM 38.8039 -93.1361 77° East 485 558 39,000  Level Kansas City Center
02:17PM 38.8336 -92.9694 77° East 480 552 39,000  Level Kansas City Center
02:18PM 38.8633 -92.8019 77° East 479 551 39,000  Level Kansas City Center
02:19PM 38.8928 -92.6353 77° East 478 550 39,000  Level Kansas City Center
02:20PM 38.9225 -92.4683 77° East 477 549 39,000  Level Kansas City Center
02:21PM 38.9517 -92.2986 77° East 480 552 39,000  Level Kansas City Center
02:22PM 38.9794 -92.1317 78° East 478 550 39,000  Level Kansas City Center
02:23PM 39.0139 -91.9322 77° East 475 547 39,000  Level Kansas City Center
02:24PM 39.0414 -91.7658 78° East 475 547 39,000  Level Kansas City Center
02:25PM 39.0694 -91.5986 78° East 474 545 39,000  Level Kansas City Center
02:26PM 39.0981 -91.4308 78° East 476 548 39,000  Level Kansas City Center
02:27PM 39.1261 -91.2628 78° East 478 550 39,000  Level Kansas City Center
02:28PM 39.1531 -91.0961 78° East 478 550 39,000  Level Kansas City Center
02:29PM 39.1800 -90.9292 78° East 476 548 39,000  Level Kansas City Center
02:30PM 39.2067 -90.7611 78° East 476 548 39,000  Level Kansas City Center
02:31PM 39.2389 -90.5614 78° East 474 545 39,000  Level Kansas City Center
02:32PM 39.2642 -90.3942 79° East 473 544 39,000  Level Kansas City Center
02:33PM 39.2897 -90.2275 79° East 473 544 39,000  Level Kansas City Center
02:34PM 39.3150 -90.0600 79° East 474 545 39,000  Level Kansas City Center
02:36PM 39.3394 -89.8950 79° East 470 541 39,000  Level Kansas City Center
02:37PM 39.3644 -89.7294 79° East 468 539 39,000  Level Kansas City Center
02:38PM 39.3883 -89.5636 79° East 470 541 39,000  Level Kansas City Center
02:39PM 39.4175 -89.3650 79° East 468 539 39,000  Level Kansas City Center
02:40PM 39.4392 -89.2181 79° East 467 537 39,000  Level Kansas City Center
02:41PM 39.4639 -89.0528 79° East 468 539 39,000  Level Kansas City Center
02:42PM 39.4917 -88.8547 80° East 469 540 39,000  Level Kansas City Center
02:43PM 39.5142 -88.6897 80° East 468 539 39,000  Level Kansas City Center
02:44PM 39.5392 -88.5172 79° East 469 540 39,000  Level Kansas City Center
02:45PM 39.5636 -88.3489 79° East 471 542 39,000  Level Kansas City Center
02:46PM 39.5858 -88.1789 80° East 474 545 39,000  Level Kansas City Center
02:46PM 39.5925 -88.1058 83° East 471 542 39,000  Level Indianapolis Center
02:47PM 39.6111 -87.9397 82° East 469 540 39,000  Level Indianapolis Center
02:48PM 39.6356 -87.7397 81° East 468 539 39,000  Level Indianapolis Center
02:49PM 39.6544 -87.5739 82° East 467 537 39,000  Level Indianapolis Center
02:50PM 39.6736 -87.4094 81° East 465 535 39,000  Level Indianapolis Center
02:52PM 39.6908 -87.2450 82° East 464 534 39,000  Level Indianapolis Center
02:53PM 39.7094 -87.0803 82° East 463 533 39,000  Level Indianapolis Center
02:54PM 39.7317 -86.8844 82° East 461 531 39,000  Level Indianapolis Center
02:55PM 39.7486 -86.7211 82° East 459 528 39,000  Level Indianapolis Center
02:56PM 39.7661 -86.5586 82° East 457 526 39,000  Level Indianapolis Center
02:57PM 39.7836 -86.3956 82° East 452 520 39,000  Level Indianapolis Center
02:58PM 39.8006 -86.2297 82° East 454 522 39,000  Level Indianapolis Center
02:59PM 39.8181 -86.0564 82° East 458 527 39,000  Level Indianapolis Center
03:00PM 39.8336 -85.8928 83° East 457 526 39,000  Level Indianapolis Center
03:01PM 39.8500 -85.7242 83° East 466 536 39,000  Level Indianapolis Center
03:02PM 39.8667 -85.5583 82° East 466 536 39,000  Level Indianapolis Center
03:03PM 39.8856 -85.3578 83° East 468 539 39,000  Level Indianapolis Center
03:04PM 39.9006 -85.1914 83° East 465 535 39,000  Level Indianapolis Center
03:05PM 39.9167 -85.0261 83° East 462 532 39,000  Level Indianapolis Center
03:06PM 39.9311 -84.8622 83° East 460 529 39,000  Level Indianapolis Center
03:07PM 39.9461 -84.6989 83° East 458 527 39,000  Level Indianapolis Center
03:08PM 39.9628 -84.5042 84° East 453 521 39,000  Level Indianapolis Center
03:09PM 39.9769 -84.3425 83° East 450 518 39,000  Level Indianapolis Center
03:10PM 39.9911 -84.1803 83° East 452 520 39,000  Level Indianapolis Center
03:11PM 40.0050 -84.0192 84° East 450 518 39,000  Level Indianapolis Center
03:12PM 40.0197 -83.8431 84° East 450 518 39,000  Level Indianapolis Center
03:13PM 40.0322 -83.6792 84° East 451 519 39,000  Level Indianapolis Center
03:14PM 40.0456 -83.5164 84° East 449 517 39,000  Level Indianapolis Center
03:15PM 40.0575 -83.3522 85° East 452 520 39,000  Level Indianapolis Center
03:16PM 40.0703 -83.1875 84° East 453 521 39,000  Level Indianapolis Center
03:17PM 40.0856 -82.9964 84° East 450 518 39,000  Level Indianapolis Center
03:18PM 40.0972 -82.8325 85° East 450 518 39,000  Level Indianapolis Center
03:19PM 40.1092 -82.6689 84° East 450 518 39,000  Level Indianapolis Center
03:20PM 40.1194 -82.5061 85° East 447 514 39,000  Level Indianapolis Center
03:22PM 40.1314 -82.3447 84° East 445 512 39,000  Level Indianapolis Center
03:23PM 40.1411 -82.1803 86° East 449 517 39,000  Level Indianapolis Center
03:24PM 40.1542 -81.9889 85° East 450 518 39,000  Level Indianapolis Center
03:25PM 40.1653 -81.8222 85° East 455 524 39,000  Level Indianapolis Center
03:26PM 40.1747 -81.6561 86° East 456 525 39,000  Level Indianapolis Center
03:27PM 40.1850 -81.4911 85° East 456 525 39,000  Level Indianapolis Center
03:28PM 40.1958 -81.3258 85° East 455 524 39,000  Level Indianapolis Center
03:29PM 40.2047 -81.1619 86° East 453 521 39,000  Level Indianapolis Center
03:29PM 40.2114 -81.0511 85° East 449 517 39,000  Level Cleveland Center
03:30PM 40.2197 -80.8911 86° East 447 514 39,000  Level Cleveland Center
03:31PM 40.2297 -80.7275 85° East 453 521 39,000  Level Cleveland Center
03:32PM 40.2394 -80.5664 85° East 450 518 39,000  Level Cleveland Center
03:33PM 40.2475 -80.4058 86° East 452 520 39,000  Level Cleveland Center
03:35PM 40.2564 -80.2128 86° East 453 521 39,000 -420 Level Cleveland Center
03:36PM 40.2642 -80.0531 86° East 452 520 38,200 -840 Descending Cleveland Center
03:37PM 40.2728 -79.8953 86° East 445 512 37,300 -900 Descending Cleveland Center
03:38PM 40.2792 -79.7358 87° East 443 510 36,400 -1,020 Descending Cleveland Center
03:39PM 40.2875 -79.5419 87° East 448 516 35,200 -1,020 Descending Cleveland Center
03:40PM 40.2942 -79.3792 87° East 449 517 34,300 -900 Descending Cleveland Center
03:41PM 40.3006 -79.2261 87° East 453 521 33,400 -660 Descending Cleveland Center
03:42PM 40.3078 -79.0319 87° East 452 520 33,000 -540 Descending Cleveland Center
03:43PM 40.3150 -78.8692 87° East 452 520 32,400 -780 Descending Cleveland Center
03:44PM 40.3164 -78.7022 89° East 462 532 31,500 -960 Descending Cleveland Center
03:45PM 40.3161 -78.5364 90° East 463 533 30,500 -1,080 Descending Cleveland Center
03:46PM 40.3153 -78.3372 90° East 461 531 29,300 -1,200 Descending Cleveland Center
03:47PM 40.3150 -78.1747 90° East 455 524 28,100 -1,800 Descending Cleveland Center
03:48PM 40.3144 -78.0147 90° East 448 516 25,600 -1,500 Descending Cleveland Center
03:49PM 40.3122 -77.8622 91° East 430 495 25,000 -360 Descending Cleveland Center
03:50PM 40.3100 -77.7131 91° East 417 480 24,900  Descending Cleveland Center
03:51PM 40.3083 -77.5325 91° East 418 481 25,000 -960 Climbing Cleveland Center
03:52PM 40.3075 -77.3811 90° East 420 483 22,900 -2,340 Descending Cleveland Center
03:53PM 40.3036 -77.2150 92° East 412 474 20,200 -2,400 Descending Cleveland Center
03:54PM 40.3003 -77.0667 92° East 409 471 18,000 -1,200 Descending Cleveland Center
03:55PM 40.2697 -76.9306 106° East 389 448 17,800 -480 Descending Cleveland Center
03:56PM 40.2381 -76.7933 107° East 392 451 17,100 -900 Descending Cleveland Center
03:57PM 40.2067 -76.6525 106° East 388 447 16,000 -1,080 Descending New York Center
03:58PM 40.1719 -76.5108 108° East 388 447 14,900 -1,080 Descending New York Center
03:59PM 40.1406 -76.3833 108° East 380 437 13,900 -1,020 Descending New York Center
04:00PM 40.1156 -76.2511 104° East 370 426 12,900 -1,020 Descending New York Center
04:01PM 40.1103 -76.1339 93° East 365 420 11,900 -1,320 Descending New York Center
04:02PM 40.1000 -75.9947 95° East 352 405 10,400 -1,080 Descending New York Center
04:03PM 40.0925 -75.8828 95° East 330 380 9,800 -1,140 Descending New York Center
04:04PM 40.0819 -75.7844 98° East 283 326 8,200 -1,380 Descending New York Center
04:05PM 40.0758 -75.6808 94° East 283 326 7,100 -1,140 Descending New York Center
04:06PM 40.0717 -75.5831 93° East 271 312 6,000 -600 Descending New York Center
04:07PM 40.0669 -75.4906 94° East 271 312 6,000  Level New York Center
04:08PM 40.0408 -75.4181 115° Southeast 240 276 6,000  Level New York Center
04:09PM 39.9811 -75.3953 164° South 212 244 6,000 -180 Level New York Center
04:10PM 39.9258 -75.4267 204° Southwest 213 245 5,700 -540 Descending New York Center
04:11PM 39.9081 -75.5042 253° West 173 199 5,000 -600 Descending New York Center
04:12PM 39.8906 -75.5733 252° West 189 217 4,500 -720 Descending New York Center
04:13PM 39.8667 -75.5833 198° South 189 217 3,800 -900 Descending Philadelphia TRACON
04:14PM 39.8333 -75.5333 131° Southeast 176 203 3,000 -480 Descending Philadelphia TRACON
04:15PM 39.8167 -75.4667 108° East 173 199 2,900 -540 Descending Philadelphia TRACON
04:16PM 39.8333 -75.4167 67° East 172 198 2,000 -900 Descending Philadelphia TRACON
04:17PM 39.8500 -75.3500 72° East 173 199 1,100 -840 Descending Philadelphia TRACON
04:18PM 39.8500 -75.3000 90° East 134 154 400 -720 Descending Philadelphia TRACON
04:20PM 39.8667 -75.2333 84° East  Level FlightAware Approximate
04:27PM 39.8722 -75.2409 84° East  Level Estimated